createdAt,value
2019-05-16T00:00:15.128Z,21.27
2019-05-16T00:02:51.827Z,21.52
2019-05-16T00:05:28.291Z,22.52
2019-05-16T00:08:04.729Z,21.97
2019-05-16T00:10:41.687Z,22.07
2019-05-16T00:13:18.615Z,22.17
2019-05-16T00:15:55.800Z,21.82
2019-05-16T00:18:32.429Z,22.45
2019-05-16T00:21:09.004Z,23.38
2019-05-16T00:23:45.473Z,21.77
2019-05-16T00:26:22.118Z,20.80
2019-05-16T00:28:59.057Z,21.15
2019-05-16T00:31:38.055Z,21.37
2019-05-16T00:34:13.510Z,21.57
2019-05-16T00:36:50.109Z,21.23
2019-05-16T00:39:28.595Z,21.77
2019-05-16T00:42:05.028Z,21.62
2019-05-16T00:44:41.667Z,21.20
2019-05-16T00:47:18.541Z,20.77
2019-05-16T00:49:58.040Z,20.80
2019-05-16T00:52:33.432Z,22.82
2019-05-16T00:55:10.060Z,21.93
2019-05-16T00:57:48.262Z,22.05
2019-05-16T01:00:38.121Z,21.85
2019-05-16T01:03:15.023Z,22.52
2019-05-16T01:05:51.684Z,22.65
2019-05-16T01:08:31.081Z,22.27
2019-05-16T01:11:08.170Z,20.30
2019-05-16T01:13:48.513Z,20.43
2019-05-16T01:16:24.798Z,20.82
2019-05-16T01:19:02.070Z,21.27
2019-05-16T01:21:39.185Z,21.35
2019-05-16T01:24:18.708Z,20.45
2019-05-16T01:26:54.316Z,21.17
2019-05-16T01:29:30.814Z,21.17
2019-05-16T01:32:08.409Z,22.02
2019-05-16T01:34:45.444Z,20.37
2019-05-16T01:37:21.825Z,20.90
2019-05-16T01:39:58.760Z,21.57
2019-05-16T01:42:35.507Z,19.75
2019-05-16T01:45:12.589Z,21.93
2019-05-16T01:47:49.182Z,20.65
2019-05-16T01:50:25.671Z,20.15
2019-05-16T01:53:02.231Z,20.30
2019-05-16T01:55:39.077Z,19.15
2019-05-16T01:58:15.627Z,20.30
2019-05-16T02:01:02.055Z,20.90
2019-05-16T02:03:30.064Z,19.52
2019-05-16T02:06:08.667Z,19.60
2019-05-16T02:08:44.875Z,19.75
2019-05-16T02:11:22.309Z,18.98
2019-05-16T02:13:59.084Z,18.25
2019-05-16T02:16:38.333Z,18.62
2019-05-16T02:19:14.181Z,20.20
2019-05-16T02:21:51.142Z,19.73
2019-05-16T02:24:28.480Z,19.27
2019-05-16T02:27:05.294Z,20.08
2019-05-16T02:29:41.531Z,18.48
2019-05-16T02:32:17.991Z,19.60
2019-05-16T02:34:54.586Z,20.27
2019-05-16T02:37:34.884Z,19.32
2019-05-16T02:40:11.916Z,21.50
2019-05-16T02:42:51.228Z,20.45
2019-05-16T02:45:26.115Z,20.17
2019-05-16T02:48:02.528Z,19.45
2019-05-16T02:50:41.824Z,18.85
2019-05-16T02:53:18.247Z,18.55
2019-05-16T02:55:55.166Z,18.87
2019-05-16T02:58:31.761Z,18.73
2019-05-16T03:01:10.812Z,18.05
2019-05-16T03:03:46.658Z,17.65
2019-05-16T03:06:23.790Z,18.02
2019-05-16T03:09:01.837Z,17.67
2019-05-16T03:11:42.017Z,16.10
2019-05-16T03:14:35.925Z,17.37
2019-05-16T03:17:13.535Z,16.87
2019-05-16T03:19:51.097Z,16.30
2019-05-16T03:22:31.264Z,16.87
2019-05-16T03:25:07.060Z,16.52
2019-05-16T03:27:43.661Z,16.02
2019-05-16T03:30:23.773Z,15.50
2019-05-16T03:32:57.448Z,16.57
2019-05-16T03:35:34.555Z,16.37
2019-05-16T03:38:12.245Z,16.17
2019-05-16T03:40:50.997Z,16.82
2019-05-16T03:43:27.113Z,18.02
2019-05-16T03:46:03.784Z,22.45
2019-05-16T03:48:40.898Z,24.32
2019-05-16T03:51:17.798Z,26.97
2019-05-16T03:53:54.685Z,22.73
2019-05-16T03:56:32.518Z,19.98
2019-05-16T03:59:11.002Z,17.60
2019-05-16T04:01:46.957Z,19.90
2019-05-16T04:04:23.724Z,17.98
2019-05-16T04:07:01.600Z,17.90
2019-05-16T04:09:40.819Z,18.05
2019-05-16T04:12:16.323Z,17.17
2019-05-16T04:14:53.164Z,16.65
2019-05-16T04:17:31.757Z,16.12
2019-05-16T04:20:11.237Z,18.45
2019-05-16T04:22:45.647Z,18.95
2019-05-16T04:25:22.387Z,16.65
2019-05-16T04:28:01.045Z,16.87
2019-05-16T04:30:41.325Z,15.40
2019-05-16T04:33:16.418Z,14.60
2019-05-16T04:35:53.423Z,15.18
2019-05-16T04:38:40.411Z,15.50
2019-05-16T04:41:11.308Z,14.03
2019-05-16T04:43:46.839Z,14.60
2019-05-16T04:46:23.238Z,14.87
2019-05-16T04:49:01.710Z,15.45
2019-05-16T04:51:37.375Z,15.13
2019-05-16T04:54:13.592Z,16.17
2019-05-16T04:56:51.380Z,16.20
2019-05-16T04:59:30.931Z,15.60
2019-05-16T05:02:06.020Z,15.08
2019-05-16T05:04:42.376Z,15.35
2019-05-16T05:07:20.760Z,16.32
2019-05-16T05:09:56.347Z,17.27
2019-05-16T05:12:32.882Z,15.80
2019-05-16T05:15:11.289Z,16.20
2019-05-16T05:17:47.283Z,16.52
2019-05-16T05:20:24.086Z,16.60
2019-05-16T05:23:00.535Z,16.75
2019-05-16T05:25:36.992Z,17.17
2019-05-16T05:28:13.639Z,17.25
2019-05-16T05:30:50.634Z,16.05
2019-05-16T05:33:29.960Z,16.35
2019-05-16T05:36:05.501Z,17.85
2019-05-16T05:38:41.914Z,19.00
2019-05-16T05:41:19.891Z,18.85
2019-05-16T05:43:56.735Z,18.92
2019-05-16T05:46:33.225Z,18.75
2019-05-16T05:49:10.513Z,19.67
2019-05-16T05:51:47.126Z,18.48
2019-05-16T05:54:22.991Z,18.32
2019-05-16T05:57:00.661Z,18.62
2019-05-16T05:59:36.623Z,18.62
2019-05-16T06:02:12.844Z,18.17
2019-05-16T06:04:50.172Z,18.15
2019-05-16T06:07:27.103Z,18.80
2019-05-16T06:10:03.646Z,18.85
2019-05-16T06:12:41.078Z,18.07
2019-05-16T06:15:20.080Z,17.25
2019-05-16T06:17:55.839Z,14.60
2019-05-16T06:20:32.249Z,14.68
2019-05-16T06:23:10.618Z,15.90
2019-05-16T06:25:46.727Z,15.65
2019-05-16T06:28:23.444Z,15.15
2019-05-16T06:31:01.948Z,16.23
2019-05-16T06:33:37.617Z,15.20
2019-05-16T06:36:13.803Z,16.48
2019-05-16T06:38:50.589Z,17.23
2019-05-16T06:41:27.274Z,16.67
2019-05-16T06:44:03.715Z,16.48
2019-05-16T06:46:56.162Z,16.30
2019-05-16T06:49:19.800Z,15.30
2019-05-16T06:51:56.281Z,15.78
2019-05-16T06:54:32.941Z,16.02
2019-05-16T06:57:10.631Z,16.97
2019-05-16T06:59:47.183Z,16.90
2019-05-16T07:02:30.277Z,15.72
2019-05-16T07:05:02.230Z,16.02
2019-05-16T07:07:40.412Z,17.30
2019-05-16T07:10:17.094Z,16.97
2019-05-16T07:12:53.801Z,17.42
2019-05-16T07:15:30.232Z,17.10
2019-05-16T07:18:06.760Z,17.17
2019-05-16T07:20:43.358Z,17.17
2019-05-16T07:23:20.992Z,17.55
2019-05-16T07:26:00.828Z,16.55
2019-05-16T07:28:36.859Z,17.62
2019-05-16T07:31:18.436Z,16.27
2019-05-16T07:33:50.979Z,17.00
2019-05-16T07:36:27.845Z,17.02
2019-05-16T07:39:04.800Z,17.20
2019-05-16T07:41:41.459Z,17.23
2019-05-16T07:44:20.675Z,16.32
2019-05-16T07:46:56.369Z,18.17
2019-05-16T07:49:33.052Z,15.85
2019-05-16T07:52:10.698Z,16.82
2019-05-16T07:54:47.284Z,15.85
2019-05-16T07:57:23.934Z,15.80
2019-05-16T08:00:00.883Z,15.58
2019-05-16T08:02:40.372Z,14.93
2019-05-16T08:05:17.186Z,15.08
2019-05-16T08:07:53.953Z,15.60
2019-05-16T08:10:37.979Z,15.78
2019-05-16T08:13:07.822Z,15.00
2019-05-16T08:15:45.055Z,15.32
2019-05-16T08:18:21.778Z,15.32
2019-05-16T08:21:00.708Z,14.68
2019-05-16T08:23:36.203Z,15.00
2019-05-16T08:26:12.451Z,15.70
2019-05-16T08:28:50.345Z,14.68
2019-05-16T08:31:26.949Z,15.75
2019-05-16T08:34:03.395Z,15.20
2019-05-16T08:36:41.009Z,15.25
2019-05-16T08:39:17.802Z,13.68
2019-05-16T08:41:54.127Z,14.95
2019-05-16T08:44:32.383Z,15.23
2019-05-16T08:47:11.956Z,14.33
2019-05-16T08:49:46.286Z,14.45
2019-05-16T08:52:22.701Z,14.85
2019-05-16T08:55:03.132Z,14.47
2019-05-16T08:57:40.948Z,16.07
2019-05-16T09:00:17.131Z,15.28
2019-05-16T09:02:53.800Z,15.80
2019-05-16T09:05:31.559Z,15.10
2019-05-16T09:08:08.299Z,16.02
2019-05-16T09:10:57.959Z,15.32
2019-05-16T09:13:22.677Z,16.60
2019-05-16T09:15:59.405Z,15.38
2019-05-16T09:18:51.303Z,19.65
2019-05-16T09:21:14.002Z,21.93
2019-05-16T09:23:50.410Z,16.90
2019-05-16T09:26:27.862Z,17.25
2019-05-16T09:29:07.903Z,18.95
2019-05-16T09:31:42.513Z,18.77
2019-05-16T09:34:19.237Z,18.17
2019-05-16T09:37:00.442Z,17.95
2019-05-16T09:39:33.855Z,19.70
2019-05-16T09:42:10.494Z,18.48
2019-05-16T09:44:47.630Z,18.02
2019-05-16T09:47:24.496Z,18.32
2019-05-16T09:50:00.751Z,18.17
2019-05-16T09:52:37.554Z,17.80
2019-05-16T09:55:17.334Z,20.95
2019-05-16T09:57:54.932Z,21.10
2019-05-16T10:00:31.812Z,19.55
2019-05-16T10:03:08.565Z,21.07
2019-05-16T10:05:46.661Z,22.07
2019-05-16T10:08:22.948Z,20.90
2019-05-16T10:11:00.004Z,22.73
2019-05-16T10:13:37.528Z,22.45
2019-05-16T10:16:17.324Z,21.35
2019-05-16T10:18:56.798Z,20.90
2019-05-16T10:21:33.657Z,17.35
2019-05-16T10:24:10.497Z,16.00
2019-05-16T10:26:53.444Z,13.05
2019-05-16T10:29:27.406Z,12.88
2019-05-16T10:32:03.691Z,11.90
2019-05-16T10:34:40.563Z,10.65
2019-05-16T10:37:17.705Z,10.30
2019-05-16T10:39:56.262Z,9.30
2019-05-16T10:42:32.483Z,8.30
2019-05-16T10:45:10.461Z,8.70
2019-05-16T10:47:48.121Z,9.08
2019-05-16T10:50:27.437Z,9.45
2019-05-16T10:53:25.800Z,8.93
2019-05-16T10:55:42.293Z,12.13
2019-05-16T10:58:35.611Z,12.18
2019-05-16T11:01:15.670Z,12.43
2019-05-16T11:03:38.567Z,12.35
2019-05-16T11:08:57.340Z,12.93
2019-05-16T11:11:33.592Z,11.33
2019-05-16T11:14:09.941Z,11.00
2019-05-16T11:16:47.354Z,9.95
2019-05-16T11:19:24.683Z,9.40
2019-05-16T11:22:01.380Z,8.05
2019-05-16T11:24:37.936Z,7.87
2019-05-16T11:27:14.635Z,7.28
2019-05-16T11:29:51.285Z,7.33
2019-05-16T11:32:28.026Z,7.10
2019-05-16T11:35:07.125Z,7.95
2019-05-16T11:37:42.681Z,8.45
2019-05-16T11:40:19.161Z,7.25
2019-05-16T11:43:06.765Z,6.92
2019-05-16T11:45:33.329Z,6.85
2019-05-16T11:48:10.083Z,7.28
2019-05-16T11:50:47.970Z,7.58
2019-05-16T11:53:27.975Z,7.87
2019-05-16T11:56:02.362Z,8.65
2019-05-16T11:58:39.016Z,8.15
2019-05-16T12:01:16.475Z,9.08
2019-05-16T12:03:53.191Z,8.85
2019-05-16T12:06:29.688Z,8.10
2019-05-16T12:09:06.702Z,7.60
2019-05-16T12:11:43.499Z,8.23
2019-05-16T12:14:22.076Z,8.25
2019-05-16T12:16:58.419Z,7.58
2019-05-16T12:19:37.736Z,8.08
2019-05-16T12:22:13.030Z,7.72
2019-05-16T12:24:49.588Z,8.40
2019-05-16T12:27:32.616Z,7.87
2019-05-16T12:30:04.134Z,9.85
2019-05-16T12:32:40.887Z,9.80
2019-05-16T12:35:18.031Z,10.13
2019-05-16T12:37:57.067Z,10.53
2019-05-16T12:40:33.843Z,11.43
2019-05-16T12:43:10.584Z,11.90
2019-05-16T12:45:47.663Z,12.10
2019-05-16T12:48:24.314Z,11.75
2019-05-16T12:51:01.272Z,12.18
2019-05-16T12:53:37.828Z,12.50
2019-05-16T12:56:17.338Z,11.57
2019-05-16T12:58:52.814Z,12.40
2019-05-16T13:01:33.763Z,13.20
2019-05-16T13:04:07.647Z,12.53
2019-05-16T13:06:46.953Z,13.32
2019-05-16T13:09:21.914Z,13.68
2019-05-16T13:11:58.441Z,17.45
2019-05-16T13:14:39.968Z,16.95
2019-05-16T13:17:13.592Z,15.72
2019-05-16T13:19:51.092Z,16.50
2019-05-16T13:22:27.923Z,15.55
2019-05-16T13:25:07.146Z,14.47
2019-05-16T13:27:42.145Z,15.13
2019-05-16T13:30:19.186Z,14.75
2019-05-16T13:32:56.587Z,14.07
2019-05-16T13:35:36.729Z,15.18
2019-05-16T13:38:11.638Z,13.48
2019-05-16T13:40:48.309Z,13.58
2019-05-16T13:43:26.980Z,12.75
2019-05-16T13:46:03.428Z,13.30
2019-05-16T13:48:41.791Z,14.23
2019-05-16T13:51:19.130Z,14.00
2019-05-16T13:53:55.452Z,14.28
2019-05-16T13:56:32.579Z,14.23
2019-05-16T13:59:09.367Z,13.53
2019-05-16T14:01:46.522Z,14.25
2019-05-16T14:04:23.029Z,15.08
2019-05-16T14:06:59.560Z,15.25
2019-05-16T14:09:37.782Z,14.93
2019-05-16T14:12:14.609Z,15.65
2019-05-16T14:14:51.060Z,16.48
2019-05-16T14:17:28.679Z,15.00
2019-05-16T14:20:13.941Z,15.98
2019-05-16T14:22:44.527Z,15.95
2019-05-16T14:25:21.457Z,16.12
2019-05-16T14:27:58.355Z,16.30
2019-05-16T14:30:37.072Z,16.15
2019-05-16T14:33:14.078Z,16.65
2019-05-16T14:35:51.712Z,17.27
2019-05-16T14:38:29.419Z,16.20
2019-05-16T14:41:08.134Z,17.80
2019-05-16T14:43:46.816Z,19.17
2019-05-16T14:46:23.291Z,18.05
2019-05-16T14:48:59.294Z,17.90
2019-05-16T14:51:37.922Z,18.12
2019-05-16T14:54:14.533Z,17.67
2019-05-16T14:56:51.007Z,18.82
2019-05-16T14:59:28.965Z,16.90
2019-05-16T15:02:04.139Z,16.55
2019-05-16T15:04:40.566Z,16.15
2019-05-16T15:07:19.392Z,17.32
2019-05-16T15:09:56.491Z,17.92
2019-05-16T15:12:33.159Z,17.17
2019-05-16T15:15:24.016Z,17.60
2019-05-16T15:17:56.677Z,18.75
2019-05-16T15:20:32.513Z,18.10
2019-05-16T15:23:09.325Z,17.52
2019-05-16T15:25:46.123Z,16.90
2019-05-16T15:28:26.463Z,18.95
2019-05-16T15:31:00.639Z,18.65
2019-05-16T15:33:37.399Z,18.50
2019-05-16T15:36:16.535Z,18.52
2019-05-16T15:38:52.184Z,18.65
2019-05-16T15:41:28.546Z,17.67
2019-05-16T15:44:07.550Z,17.48
2019-05-16T15:46:43.160Z,18.90
2019-05-16T15:49:19.852Z,19.45
2019-05-16T15:51:57.059Z,18.82
2019-05-16T15:54:37.499Z,20.57
2019-05-16T15:57:13.597Z,19.50
2019-05-16T15:59:50.828Z,20.05
2019-05-16T16:02:27.321Z,19.37
2019-05-16T16:05:03.804Z,17.92
2019-05-16T16:07:40.569Z,18.05
2019-05-16T16:10:17.397Z,17.05
2019-05-16T16:12:54.045Z,17.20
2019-05-16T16:15:30.457Z,16.75
2019-05-16T16:18:08.820Z,17.00
2019-05-16T16:20:47.577Z,18.00
2019-05-16T16:23:22.634Z,17.95
2019-05-16T16:25:59.944Z,19.32
2019-05-16T16:28:38.132Z,20.50
2019-05-16T16:31:16.770Z,20.95
2019-05-16T16:33:52.763Z,20.88
2019-05-16T16:36:30.461Z,21.27
2019-05-16T16:39:08.250Z,20.52
2019-05-16T16:41:47.579Z,22.25
2019-05-16T16:44:22.069Z,21.55
2019-05-16T16:46:58.569Z,22.35
2019-05-16T16:49:38.952Z,22.65
2019-05-16T16:52:13.160Z,21.80
2019-05-16T16:54:49.515Z,21.82
2019-05-16T16:57:27.033Z,21.27
2019-05-16T17:00:03.940Z,21.10
2019-05-16T17:02:40.962Z,21.15
2019-05-16T17:05:17.838Z,19.32
2019-05-16T17:07:57.002Z,20.00
2019-05-16T17:10:32.215Z,20.92
2019-05-16T17:13:08.438Z,22.73
2019-05-16T17:15:47.093Z,22.15
2019-05-16T17:18:23.198Z,22.07
2019-05-16T17:20:59.778Z,20.17
2019-05-16T17:23:37.073Z,19.60
2019-05-16T17:26:13.622Z,20.50
2019-05-16T17:28:50.544Z,21.40
2019-05-16T17:31:26.882Z,21.37
2019-05-16T17:34:03.366Z,22.05
2019-05-16T17:36:39.902Z,22.98
2019-05-16T17:39:18.302Z,20.57
2019-05-16T17:41:54.942Z,22.35
2019-05-16T17:44:31.683Z,20.88
2019-05-16T17:47:08.190Z,20.88
2019-05-16T17:49:46.119Z,16.62
2019-05-16T17:52:22.508Z,21.85
2019-05-16T17:54:59.134Z,22.42
2019-05-16T17:57:37.153Z,23.35
2019-05-16T18:00:24.482Z,22.50
2019-05-16T18:02:53.211Z,23.42
2019-05-16T18:05:30.161Z,24.20
2019-05-16T18:08:07.496Z,17.40
2019-05-16T18:10:46.964Z,22.32
2019-05-16T18:13:23.033Z,23.90
2019-05-16T18:15:59.698Z,24.30
2019-05-16T18:18:37.535Z,23.22
2019-05-16T18:21:14.184Z,19.62
2019-05-16T18:23:50.604Z,18.90
2019-05-16T18:26:26.992Z,21.85
2019-05-16T18:29:03.855Z,20.60
2019-05-16T18:31:40.815Z,21.97
2019-05-16T18:34:17.379Z,23.20
2019-05-16T18:36:53.926Z,25.25
2019-05-16T18:39:30.657Z,25.25
2019-05-16T18:42:07.781Z,23.42
2019-05-16T18:44:47.233Z,25.05
2019-05-16T18:47:23.908Z,25.77
2019-05-16T18:50:00.814Z,25.92
2019-05-16T18:52:37.644Z,26.57
2019-05-16T18:55:16.714Z,25.15
2019-05-16T18:57:52.568Z,26.05
2019-05-16T19:00:29.804Z,27.05
2019-05-16T19:03:07.761Z,25.40
2019-05-16T19:05:46.274Z,25.62
2019-05-16T19:08:23.862Z,26.05
2019-05-16T19:11:00.695Z,26.35
2019-05-16T19:13:37.611Z,25.30
2019-05-16T19:16:14.171Z,27.20
2019-05-16T19:18:51.217Z,26.68
2019-05-16T19:21:28.013Z,26.40
2019-05-16T19:24:06.831Z,23.57
2019-05-16T19:26:42.891Z,24.47
2019-05-16T19:29:20.116Z,25.68
2019-05-16T19:31:57.146Z,25.68
2019-05-16T19:34:33.235Z,25.50
2019-05-16T19:37:10.069Z,24.20
2019-05-16T19:39:46.757Z,24.75
2019-05-16T19:42:23.413Z,27.02
2019-05-16T19:45:00.047Z,26.05
2019-05-16T19:47:40.951Z,28.40
2019-05-16T19:50:15.956Z,26.12
2019-05-16T19:52:52.625Z,26.65
2019-05-16T19:55:29.037Z,27.77
2019-05-16T19:58:06.838Z,28.52
2019-05-16T20:00:46.322Z,28.42
2019-05-16T20:03:21.900Z,28.50
2019-05-16T20:05:58.604Z,28.92
2019-05-16T20:08:37.218Z,29.57
2019-05-16T20:11:12.975Z,29.98
2019-05-16T20:13:49.864Z,29.45
2019-05-16T20:16:27.362Z,31.20
2019-05-16T20:19:04.399Z,29.30
2019-05-16T20:21:41.262Z,27.82
2019-05-16T20:24:17.750Z,29.42
2019-05-16T20:26:56.956Z,29.95
2019-05-16T20:29:32.784Z,30.85
2019-05-16T20:32:11.469Z,32.03
2019-05-16T20:34:47.629Z,32.80
2019-05-16T20:37:26.456Z,33.65
2019-05-16T20:40:02.372Z,33.80
2019-05-16T20:42:39.083Z,34.23
2019-05-16T20:45:19.094Z,33.55
2019-05-16T20:48:08.170Z,35.25
2019-05-16T20:50:33.363Z,34.50
2019-05-16T20:53:09.905Z,35.38
2019-05-16T20:55:57.093Z,36.05
2019-05-16T20:58:32.604Z,36.25
2019-05-16T21:01:08.918Z,37.00
2019-05-16T21:03:46.770Z,37.15
2019-05-16T21:06:23.537Z,39.38
2019-05-16T21:09:00.158Z,37.45
2019-05-16T21:11:38.072Z,36.83
2019-05-16T21:14:16.317Z,35.92
2019-05-16T21:16:52.614Z,38.65
2019-05-16T21:19:29.331Z,38.65
2019-05-16T21:22:07.274Z,37.05
2019-05-16T21:24:43.944Z,38.28
2019-05-16T21:27:20.370Z,37.93
2019-05-16T21:29:57.027Z,40.03
2019-05-16T21:32:33.820Z,39.25
2019-05-16T21:35:12.341Z,39.40
2019-05-16T21:37:48.685Z,39.92
2019-05-16T21:40:26.463Z,37.93
2019-05-16T21:43:03.088Z,36.88
2019-05-16T21:45:39.896Z,38.85
2019-05-16T21:48:20.141Z,39.48
2019-05-16T21:50:57.039Z,39.58
2019-05-16T21:53:36.576Z,41.02
2019-05-16T21:56:12.717Z,40.63
2019-05-16T21:58:49.128Z,41.83
2019-05-16T22:01:27.684Z,41.63
2019-05-16T22:04:04.205Z,41.15
2019-05-16T22:06:40.885Z,41.20
2019-05-16T22:09:18.002Z,42.23
2019-05-16T22:11:57.110Z,43.80
2019-05-16T22:14:37.679Z,42.00
2019-05-16T22:17:16.817Z,44.05
2019-05-16T22:19:53.004Z,41.08
2019-05-16T22:22:29.981Z,39.60
2019-05-16T22:25:07.638Z,40.28
2019-05-16T22:27:48.503Z,41.35
2019-05-16T22:30:23.101Z,40.83
2019-05-16T22:32:59.566Z,41.50
2019-05-16T22:35:37.482Z,41.10
2019-05-16T22:38:16.921Z,43.23
2019-05-16T22:40:53.788Z,41.98
2019-05-16T22:43:30.757Z,44.03
2019-05-16T22:46:09.986Z,43.75
2019-05-16T22:48:46.857Z,46.08
2019-05-16T22:51:23.562Z,45.30
2019-05-16T22:53:59.921Z,43.28
2019-05-16T22:56:37.508Z,44.58
2019-05-16T22:59:16.651Z,42.90
2019-05-16T23:01:53.527Z,40.28
2019-05-16T23:04:29.515Z,40.50
2019-05-16T23:07:07.116Z,39.90
2019-05-16T23:09:43.902Z,39.38
2019-05-16T23:12:20.212Z,41.35
2019-05-16T23:14:56.996Z,39.40
2019-05-16T23:17:33.665Z,38.80
2019-05-16T23:20:11.233Z,42.35
2019-05-16T23:22:47.647Z,39.88
2019-05-16T23:25:24.025Z,42.70
2019-05-16T23:28:00.598Z,45.83
2019-05-16T23:30:37.482Z,44.63
2019-05-16T23:33:14.539Z,42.13
2019-05-16T23:35:51.552Z,43.45
2019-05-16T23:38:28.458Z,41.75
2019-05-16T23:41:06.546Z,42.43
2019-05-16T23:43:43.013Z,40.95
2019-05-16T23:46:19.639Z,40.00
2019-05-16T23:48:56.606Z,39.75
2019-05-16T23:51:33.289Z,39.10
2019-05-16T23:54:10.035Z,37.85
2019-05-16T23:56:46.655Z,38.83
2019-05-16T23:59:23.400Z,40.67
